Time;durP1;ratioP1;P1;durP2;ratioP2;P2;SDS_P1;SDS_P2;PMS_P1;PMS_P2;Temp;Humidity;BMP_temperature;BMP_pressure;BME280_temperature;BME280_humidity;BME280_pressure;Samples;Min_cycle;Max_cycle;Signal;HPM_P1;HPM_P2
2023/10/19 00:00:33;;;;;;;;;3.75;0.75;;;;;17.69;71.49;98878.88;5114930;27;45541;-77
2023/10/19 00:03:02;;;;;;;;;1.50;1.00;;;;;17.69;71.29;98881.50;5118455;27;45553;-77
2023/10/19 00:05:29;;;;;;;;;2.50;0.50;;;;;17.70;71.30;98875.25;5119211;27;45632;-77
2023/10/19 00:07:57;;;;;;;;;7.00;2.00;;;;;17.69;71.44;98876.22;5104883;27;45322;-77
2023/10/19 00:10:24;;;;;;;;;3.00;1.00;;;;;17.70;71.13;98877.91;5134507;27;45519;-77
2023/10/19 00:12:57;;;;;;;;;2.50;1.50;;;;;17.72;71.08;98874.16;5120456;27;45563;-76
2023/10/19 00:15:26;;;;;;;;;3.00;2.00;;;;;17.71;71.57;98875.13;5113716;27;45784;-76
2023/10/19 00:17:54;;;;;;;;;1.50;1.50;;;;;17.73;71.39;98877.66;5114598;27;45647;-76
2023/10/19 00:23:05;;;;;;;;;3.75;1.75;;;;;17.74;71.41;98879.31;5116908;27;45522;-77
2023/10/19 00:25:33;;;;;;;;;0.50;0.00;;;;;17.73;71.46;98883.75;5121404;27;47137;-77
2023/10/19 00:28:00;;;;;;;;;1.75;1.50;;;;;17.71;71.27;98880.44;5115983;27;45161;-75
2023/10/19 00:30:30;;;;;;;;;4.00;1.00;;;;;17.75;71.22;98881.81;5119034;27;45201;-77
2023/10/19 00:32:56;;;;;;;;;3.00;0.75;;;;;17.76;71.57;98883.50;5117941;27;45412;-75
2023/10/19 00:35:27;;;;;;;;;1.50;1.00;;;;;17.79;71.24;98893.81;5115405;27;45551;-78
2023/10/19 00:37:58;;;;;;;;;1.00;1.00;;;;;17.79;71.76;98885.03;5122151;27;45571;-75
2023/10/19 00:40:34;;;;;;;;;1.00;1.00;;;;;17.75;71.32;98873.88;5117044;27;45620;-75
2023/10/19 00:43:08;;;;;;;;;5.25;1.00;;;;;17.77;71.44;98871.94;5117163;27;45532;-76
2023/10/19 00:45:39;;;;;;;;;3.00;0.00;;;;;17.79;71.37;98870.00;5110377;27;46349;-76
2023/10/19 00:48:08;;;;;;;;;1.25;1.00;;;;;17.78;71.24;98870.97;5110033;27;45929;-76
2023/10/19 00:50:33;;;;;;;;;2.00;1.00;;;;;17.79;71.33;98863.88;5120057;27;45303;-76
2023/10/19 00:52:59;;;;;;;;;3.25;1.00;;;;;17.79;71.35;98863.88;5111222;27;45327;-75
2023/10/19 00:55:27;;;;;;;;;3.50;1.00;;;;;17.80;71.27;98866.38;5124997;27;45303;-76
2023/10/19 00:57:54;;;;;;;;;3.00;1.75;;;;;17.78;71.59;98852.47;5128099;27;45941;-77
2023/10/19 01:00:31;;;;;;;;;4.50;1.00;;;;;17.81;71.41;98841.63;5100749;27;45553;-78
2023/10/19 01:02:59;;;;;;;;;3.75;0.75;;;;;17.83;71.74;98841.50;5118951;27;45454;-79
2023/10/19 01:05:32;;;;;;;;;2.25;1.00;;;;;17.76;71.96;98833.25;5090952;27;47135;-79
2023/10/19 01:07:57;;;;;;;;;2.75;1.00;;;;;17.83;71.56;98846.78;5131606;27;45305;-78
2023/10/19 01:10:23;;;;;;;;;4.00;1.00;;;;;17.82;71.69;98840.63;5124268;27;46930;-78
2023/10/19 01:12:52;;;;;;;;;2.00;2.00;;;;;17.84;71.63;98837.84;5115964;27;45181;-79
2023/10/19 01:17:56;;;;;;;;;1.00;1.00;;;;;17.82;72.08;98827.41;5123304;27;45504;-78
2023/10/19 01:31:14;;;;;;;;;2.00;2.00;;;;;17.80;72.58;98805.53;5116164;27;45319;-77
2023/10/19 01:33:41;;;;;;;;;3.75;1.00;;;;;17.81;72.58;98799.28;5123495;27;45483;-78
2023/10/19 01:36:24;;;;;;;;;4.00;2.25;;;;;17.83;72.30;98805.28;5100028;27;47480;-77
2023/10/19 01:39:00;;;;;;;;;2.50;1.00;;;;;17.83;72.79;98792.03;5119295;27;45286;-77
2023/10/19 01:41:27;;;;;;;;;2.25;1.00;;;;;17.83;72.70;98786.75;5119401;27;45484;-77
2023/10/19 01:43:53;;;;;;;;;6.25;1.00;;;;;17.84;72.30;98784.94;5117720;27;45513;-77
2023/10/19 01:46:35;;;;;;;;;2.50;1.00;;;;;17.84;72.78;98779.63;5119995;27;45551;-77
2023/10/19 01:49:02;;;;;;;;;1.00;1.00;;;;;17.86;72.50;98774.25;5108054;27;45633;-77
2023/10/19 01:51:29;;;;;;;;;5.25;0.75;;;;;17.83;73.07;98775.34;5116348;27;45378;-77
2023/10/19 01:53:58;;;;;;;;;4.50;1.75;;;;;17.83;73.10;98768.22;5118903;27;45336;-78
2023/10/19 01:56:24;;;;;;;;;5.75;1.50;;;;;17.84;73.14;98761.13;5118525;27;45289;-77
2023/10/19 01:58:51;;;;;;;;;4.00;1.75;;;;;17.84;72.77;98763.75;5120792;27;45217;-78
2023/10/19 02:01:20;;;;;;;;;1.00;0.25;;;;;17.82;73.23;98755.97;5117644;27;45351;-77
2023/10/19 02:03:48;;;;;;;;;2.00;2.00;;;;;17.84;72.97;98750.53;5122252;27;45567;-78
2023/10/19 02:06:19;;;;;;;;;1.00;0.75;;;;;17.82;73.06;98753.31;5095043;27;47065;-77
2023/10/19 02:08:50;;;;;;;;;2.00;1.75;;;;;17.86;72.98;98761.84;5099800;27;45922;-77
2023/10/19 02:11:18;;;;;;;;;2.50;1.00;;;;;17.83;73.01;98749.69;5111568;27;45377;-77
2023/10/19 02:13:47;;;;;;;;;6.25;2.25;;;;;17.86;73.28;98753.06;5120868;27;45316;-77
2023/10/19 02:16:15;;;;;;;;;2.00;0.75;;;;;17.87;73.29;98749.47;5112963;27;45455;-77
2023/10/19 02:18:42;;;;;;;;;4.50;2.00;;;;;17.85;73.37;98741.63;5134258;27;45531;-76
2023/10/19 02:21:11;;;;;;;;;1.25;1.00;;;;;17.86;73.45;98734.56;5109271;27;45424;-76
2023/10/19 02:23:37;;;;;;;;;2.00;1.00;;;;;17.82;73.29;98723.38;5105807;27;45415;-77
2023/10/19 02:26:06;;;;;;;;;2.75;1.25;;;;;17.83;73.37;98725.06;5119247;27;45431;-77
2023/10/19 02:28:31;;;;;;;;;2.00;1.00;;;;;17.86;73.37;98732.72;5109678;27;45591;-76
2023/10/19 02:31:11;;;;;;;;;1.25;1.00;;;;;17.86;73.25;98727.44;5126681;27;45276;-77
2023/10/19 02:33:37;;;;;;;;;4.25;1.00;;;;;17.86;73.35;98718.69;5119219;27;45317;-77
2023/10/19 02:36:03;;;;;;;;;4.00;1.25;;;;;17.84;73.69;98721.44;5121448;27;46594;-77
2023/10/19 02:38:29;;;;;;;;;4.00;1.00;;;;;17.81;73.61;98713.75;5119855;27;45307;-77
2023/10/19 02:40:55;;;;;;;;;1.00;1.00;;;;;17.80;73.82;98717.38;5103873;27;46993;-78
2023/10/19 02:43:22;;;;;;;;;2.75;1.00;;;;;17.80;73.73;98720.03;5122163;27;45288;-77
2023/10/19 02:45:48;;;;;;;;;3.00;0.75;;;;;17.78;73.66;98722.81;5126315;27;47070;-77
2023/10/19 02:48:13;;;;;;;;;2.25;1.50;;;;;17.80;73.64;98722.69;5130925;27;57920;-78
2023/10/19 02:50:39;;;;;;;;;4.50;1.00;;;;;17.78;74.07;98709.59;5107222;27;45437;-77
2023/10/19 02:53:05;;;;;;;;;4.00;0.75;;;;;17.79;73.29;98711.25;5124019;27;52069;-77
2023/10/19 02:55:31;;;;;;;;;2.00;1.00;;;;;17.76;73.83;98715.97;5119987;27;46387;-77
2023/10/19 02:57:58;;;;;;;;;2.00;0.00;;;;;17.74;73.49;98710.84;5118058;27;45625;-77
2023/10/19 03:00:32;;;;;;;;;1.50;0.75;;;;;17.75;73.71;98706.38;5113341;27;45397;-78
2023/10/19 03:02:59;;;;;;;;;0.50;0.50;;;;;17.75;73.69;98709.84;5100623;27;45391;-77
2023/10/19 03:05:26;;;;;;;;;3.50;1.00;;;;;17.72;74.02;98711.94;5121902;27;46212;-77
2023/10/19 03:07:52;;;;;;;;;2.25;0.50;;;;;17.69;73.60;98709.56;5122542;27;45359;-77
2023/10/19 03:10:34;;;;;;;;;0.00;0.00;;;;;17.68;73.72;98706.09;5125899;27;45315;-76
2023/10/19 03:12:59;;;;;;;;;2.50;0.25;;;;;17.64;73.65;98705.53;5110799;27;45289;-77
2023/10/19 03:15:24;;;;;;;;;2.00;0.00;;;;;17.62;73.96;98706.66;5128409;27;45647;-77
2023/10/19 03:17:50;;;;;;;;;2.00;1.25;;;;;17.61;74.81;98689.09;5122573;27;71579;-77
2023/10/19 03:20:17;;;;;;;;;1.50;0.50;;;;;17.57;74.03;98693.81;5117613;27;45322;-78
2023/10/19 03:22:46;;;;;;;;;2.00;0.25;;;;;17.54;73.95;98691.44;5108444;27;45513;-78
2023/10/19 03:27:56;;;;;;;;;5.00;1.00;;;;;17.55;73.93;98681.72;5115159;27;45431;-78
2023/10/19 03:30:24;;;;;;;;;4.25;1.50;;;;;17.52;74.56;98677.53;5111557;27;45351;-79
2023/10/19 03:32:50;;;;;;;;;4.50;1.00;;;;;17.50;74.07;98674.19;5112863;27;45757;-77
2023/10/19 03:35:15;;;;;;;;;1.00;0.25;;;;;17.46;74.16;98670.16;5115962;27;68004;-77
2023/10/19 03:37:41;;;;;;;;;2.00;0.50;;;;;17.46;74.25;98681.56;5112953;27;45530;-77
2023/10/19 03:40:10;;;;;;;;;4.75;2.00;;;;;17.43;74.57;98675.69;5122764;27;45222;-78
2023/10/19 03:42:40;;;;;;;;;2.00;1.00;;;;;17.41;75.21;98677.66;5103341;27;45378;-77
2023/10/19 03:45:13;;;;;;;;;2.75;0.75;;;;;17.39;74.66;98675.13;5112370;27;46992;-77
2023/10/19 03:47:39;;;;;;;;;1.25;0.50;;;;;17.39;74.77;98674.31;5116535;27;45432;-77
2023/10/19 03:50:12;;;;;;;;;4.50;1.00;;;;;17.33;74.94;98670.38;5124205;27;45173;-75
2023/10/19 03:52:37;;;;;;;;;2.75;1.00;;;;;17.33;75.31;98669.53;5118516;27;45236;-75
2023/10/19 03:55:10;;;;;;;;;3.00;1.00;;;;;17.31;75.88;98653.81;5120270;27;67305;-76
2023/10/19 03:57:39;;;;;;;;;2.50;1.75;;;;;17.29;75.30;98654.94;5118116;27;45619;-75
2023/10/19 04:00:08;;;;;;;;;5.00;1.00;;;;;17.27;75.46;98649.78;5122715;27;45321;-76
2023/10/19 04:02:37;;;;;;;;;4.25;0.75;;;;;17.26;75.49;98654.25;5121028;27;45601;-76
2023/10/19 04:05:03;;;;;;;;;2.25;1.00;;;;;17.26;75.24;98656.88;5123880;27;45650;-76
2023/10/19 04:07:31;;;;;;;;;2.75;1.00;;;;;17.27;75.00;98650.59;5118429;27;45401;-76
2023/10/19 04:10:44;;;;;;;;;1.00;1.00;;;;;17.26;75.52;98646.31;5112832;27;45286;-76
2023/10/19 04:12:45;;;;;;;;;2.75;1.25;;;;;17.26;75.38;98637.50;5108897;27;45541;-75
2023/10/19 04:15:17;;;;;;;;;1.25;0.75;;;;;17.25;75.24;98634.06;5118644;27;72558;-76
2023/10/19 04:17:45;;;;;;;;;1.00;1.00;;;;;17.26;75.39;98640.16;5104235;27;45308;-76
2023/10/19 04:20:34;;;;;;;;;2.00;1.50;;;;;17.23;75.32;98628.06;5094222;27;45474;-77
2023/10/19 04:23:06;;;;;;;;;3.50;1.75;;;;;17.21;75.40;98630.00;5118630;27;45554;-76
2023/10/19 04:25:31;;;;;;;;;5.50;1.50;;;;;17.18;75.97;98618.88;5103752;27;47624;-76
2023/10/19 04:27:57;;;;;;;;;5.75;2.00;;;;;17.17;75.47;98619.84;5111639;27;63143;-77
2023/10/19 04:30:22;;;;;;;;;3.00;1.00;;;;;17.13;76.63;98615.81;5120421;27;66994;-77
2023/10/19 04:32:49;;;;;;;;;3.00;2.00;;;;;17.12;76.15;98612.31;5100922;27;45484;-76
2023/10/19 04:35:21;;;;;;;;;4.00;1.75;;;;;17.11;76.08;98604.53;5109722;27;45388;-76
2023/10/19 04:37:47;;;;;;;;;4.75;3.50;;;;;17.10;75.77;98608.97;5116317;27;45947;-77
2023/10/19 04:40:12;;;;;;;;;3.75;1.75;;;;;17.11;75.96;98599.25;5100895;27;45401;-76
2023/10/19 04:42:38;;;;;;;;;5.00;2.00;;;;;17.08;76.35;98603.81;5119604;27;57108;-76
2023/10/19 04:45:05;;;;;;;;;1.25;0.75;;;;;17.12;75.89;98598.25;5107907;27;48351;-77
2023/10/19 04:47:31;;;;;;;;;2.00;1.50;;;;;17.10;75.96;98587.81;5104931;27;45410;-78
2023/10/19 04:49:56;;;;;;;;;3.50;0.50;;;;;17.12;76.20;98588.50;5119312;27;45298;-78
2023/10/19 04:52:21;;;;;;;;;3.00;0.75;;;;;17.14;75.85;98593.66;5110857;27;71159;-76
2023/10/19 04:54:47;;;;;;;;;3.75;0.75;;;;;17.15;75.84;98587.44;5111826;27;68305;-77
2023/10/19 04:57:12;;;;;;;;;0.00;0.00;;;;;17.15;75.83;98585.59;5119640;27;45484;-77
2023/10/19 04:59:38;;;;;;;;;2.25;2.25;;;;;17.17;76.09;98575.72;5118391;27;45570;-76
2023/10/19 05:02:05;;;;;;;;;1.25;0.75;;;;;17.18;76.07;98566.84;5097575;27;70069;-76
2023/10/19 05:04:30;;;;;;;;;2.50;1.00;;;;;17.18;75.93;98561.56;5118590;27;47273;-76
2023/10/19 05:06:56;;;;;;;;;1.25;1.25;;;;;17.20;75.82;98556.13;5122376;27;45540;-77
2023/10/19 05:09:21;;;;;;;;;4.75;1.00;;;;;17.21;75.64;98553.34;5116213;27;45472;-77
2023/10/19 05:11:48;;;;;;;;;4.00;2.00;;;;;17.20;75.69;98553.50;5124822;27;45434;-76
2023/10/19 05:14:13;;;;;;;;;2.00;1.00;;;;;17.21;75.72;98558.66;5117350;27;46431;-77
2023/10/19 05:16:39;;;;;;;;;2.75;1.75;;;;;17.21;76.00;98557.78;5093480;27;45500;-75
2023/10/19 05:19:04;;;;;;;;;2.00;1.25;;;;;17.19;75.66;98563.25;5117250;27;45515;-75
2023/10/19 05:21:30;;;;;;;;;3.00;2.50;;;;;17.21;75.84;98560.44;5111820;27;68986;-76
2023/10/19 05:23:55;;;;;;;;;0.50;0.50;;;;;17.21;75.81;98560.44;5095037;27;46234;-76
2023/10/19 05:26:21;;;;;;;;;5.50;2.75;;;;;17.20;75.86;98553.50;5096632;27;45519;-77
2023/10/19 05:28:47;;;;;;;;;3.75;2.00;;;;;17.21;75.67;98552.50;5108833;27;45298;-77
2023/10/19 05:31:13;;;;;;;;;5.25;2.75;;;;;17.19;75.87;98535.94;5119370;27;45467;-75
2023/10/19 05:33:38;;;;;;;;;6.00;4.75;;;;;17.20;75.82;98529.69;5108621;27;45440;-75
2023/10/19 05:36:05;;;;;;;;;4.75;3.00;;;;;17.19;75.84;98520.94;5120654;27;45450;-75
2023/10/19 05:38:31;;;;;;;;;6.50;3.50;;;;;17.20;76.04;98514.66;5119705;27;45537;-77
2023/10/19 05:40:58;;;;;;;;;4.25;2.25;;;;;17.22;75.71;98504.78;5118635;27;45482;-75
2023/10/19 05:43:24;;;;;;;;;3.75;3.25;;;;;17.23;75.72;98489.78;5122641;27;47448;-76
2023/10/19 05:45:50;;;;;;;;;3.25;1.75;;;;;17.24;75.57;98486.97;5118748;27;45335;-75
2023/10/19 05:48:15;;;;;;;;;5.50;2.75;;;;;17.26;75.42;98482.41;5121005;27;45260;-76
2023/10/19 05:50:42;;;;;;;;;4.25;2.00;;;;;17.26;75.26;98498.28;5116501;27;45631;-78
2023/10/19 05:53:07;;;;;;;;;4.00;3.00;;;;;17.25;75.33;98504.53;5103179;27;45353;-76
2023/10/19 05:55:34;;;;;;;;;4.75;3.00;;;;;17.29;75.32;98504.25;5112336;27;68897;-80
2023/10/19 05:57:59;;;;;;;;;5.00;2.00;;;;;17.27;75.39;98501.75;5113128;27;45510;-75
2023/10/19 06:00:28;;;;;;;;;4.00;1.50;;;;;17.31;75.19;98505.78;5116345;27;45503;-79
2023/10/19 06:02:53;;;;;;;;;3.50;2.00;;;;;17.31;75.51;98505.78;5119106;27;46252;-78
2023/10/19 06:05:19;;;;;;;;;3.00;2.75;;;;;17.33;74.97;98511.75;5108534;27;45487;-80
2023/10/19 06:07:45;;;;;;;;;3.50;2.00;;;;;17.32;75.39;98512.75;5102180;27;45309;-77
2023/10/19 06:10:15;;;;;;;;;7.00;2.00;;;;;17.31;75.49;98510.22;5113745;27;45316;-77
2023/10/19 06:12:45;;;;;;;;;3.50;3.25;;;;;17.33;75.77;98497.69;5111064;27;45671;-81
2023/10/19 06:15:11;;;;;;;;;6.00;4.25;;;;;17.29;75.71;98491.03;5105153;27;45673;-80
2023/10/19 06:17:41;;;;;;;;;5.00;3.75;;;;;17.30;76.03;98482.97;5102299;27;45437;-79
2023/10/19 06:20:08;;;;;;;;;5.25;5.00;;;;;17.30;76.04;98477.69;5120027;27;45394;-76
2023/10/19 06:22:37;;;;;;;;;4.00;3.00;;;;;17.31;76.20;98467.94;5114671;27;47884;-76
2023/10/19 06:25:05;;;;;;;;;7.25;4.25;;;;;17.31;76.24;98465.28;5122445;27;54088;-76
2023/10/19 06:27:31;;;;;;;;;7.00;3.00;;;;;17.25;75.71;98461.41;5104619;27;45415;-82
2023/10/19 06:29:57;;;;;;;;;7.50;4.75;;;;;17.31;75.87;98468.75;5095354;27;45556;-81
2023/10/19 06:32:22;;;;;;;;;7.00;4.00;;;;;17.29;76.32;98457.50;5109415;27;46835;-85
2023/10/19 06:34:47;;;;;;;;;4.75;2.25;;;;;17.30;76.17;98460.97;5119763;27;45470;-79
2023/10/19 06:37:13;;;;;;;;;5.50;2.25;;;;;17.31;76.04;98460.00;5118399;27;45141;-74
2023/10/19 06:39:40;;;;;;;;;1.75;1.50;;;;;17.29;75.73;98470.72;5116633;27;45398;-77
2023/10/19 06:42:10;;;;;;;;;6.00;3.50;;;;;17.32;76.07;98480.19;5111039;27;45589;-76
2023/10/19 06:44:36;;;;;;;;;2.00;1.75;;;;;17.30;75.98;98482.09;5110030;27;45562;-79
2023/10/19 06:47:01;;;;;;;;;3.75;3.75;;;;;17.33;76.28;98484.47;5114689;27;45453;-80
2023/10/19 06:49:26;;;;;;;;;5.75;3.00;;;;;17.32;76.27;98483.66;5117697;27;45538;-81
2023/10/19 06:51:53;;;;;;;;;4.00;3.00;;;;;17.35;76.25;98483.38;5119585;27;59340;-76
2023/10/19 06:54:18;;;;;;;;;8.25;3.25;;;;;17.37;76.09;98484.06;5100976;27;45728;-78
2023/10/19 06:56:45;;;;;;;;;6.50;3.50;;;;;17.38;76.11;98474.31;5114931;27;58916;-73
2023/10/19 06:59:10;;;;;;;;;6.25;3.00;;;;;17.36;76.00;98479.75;5123356;27;45560;-72
2023/10/19 07:01:36;;;;;;;;;5.00;3.75;;;;;17.36;76.08;98478.91;5110353;27;47021;-72
2023/10/19 07:04:02;;;;;;;;;3.75;2.00;;;;;17.37;75.92;98478.78;5115095;27;47377;-72
2023/10/19 07:06:27;;;;;;;;;3.25;3.00;;;;;17.40;76.18;98475.00;5116615;27;45402;-71
2023/10/19 07:08:53;;;;;;;;;8.25;4.00;;;;;17.40;75.81;98475.84;5117264;27;60630;-72
2023/10/19 07:11:18;;;;;;;;;5.25;2.75;;;;;17.43;76.15;98477.38;5122360;27;74956;-72
2023/10/19 07:13:44;;;;;;;;;4.75;2.75;;;;;17.41;75.99;98466.13;5112506;27;45380;-74
2023/10/19 07:16:14;;;;;;;;;3.00;2.50;;;;;17.42;75.74;98457.19;5114245;27;64081;-77
2023/10/19 07:18:39;;;;;;;;;3.25;2.75;;;;;17.44;76.04;98455.25;5117421;27;45602;-73
2023/10/19 07:21:05;;;;;;;;;3.25;2.75;;;;;17.49;75.73;98460.94;5125688;27;57869;-75
2023/10/19 07:23:31;;;;;;;;;3.75;2.75;;;;;17.52;75.68;98462.47;5113451;27;45330;-73
2023/10/19 07:25:59;;;;;;;;;5.00;3.25;;;;;17.53;75.67;98464.13;5118695;27;45283;-73
2023/10/19 07:28:29;;;;;;;;;4.00;2.75;;;;;17.52;75.82;98455.38;5109239;27;45408;-74
2023/10/19 07:30:55;;;;;;;;;3.50;2.75;;;;;17.53;75.50;98449.13;5114419;27;47761;-73
2023/10/19 07:33:21;;;;;;;;;3.00;2.75;;;;;17.52;75.54;98450.09;5122496;27;45269;-74
2023/10/19 07:35:52;;;;;;;;;4.50;3.00;;;;;17.52;75.58;98446.63;5110693;27;45462;-73
2023/10/19 07:38:20;;;;;;;;;4.75;3.00;;;;;17.52;75.57;98436.88;5107471;27;45354;-73
2023/10/19 07:40:46;;;;;;;;;6.50;1.75;;;;;17.51;75.63;98437.00;5114981;27;47304;-74
2023/10/19 07:43:11;;;;;;;;;34.50;31.75;;;;;17.51;75.59;98429.06;5102686;27;45524;-74
2023/10/19 07:45:37;;;;;;;;;45.50;35.25;;;;;17.53;75.67;98427.97;5100495;27;45238;-73
2023/10/19 07:48:06;;;;;;;;;4.75;4.25;;;;;17.56;75.41;98422.38;5118544;27;45447;-73
2023/10/19 07:50:33;;;;;;;;;5.75;3.00;;;;;17.61;75.22;98420.13;5117516;27;45566;-74
2023/10/19 07:52:58;;;;;;;;;4.00;2.75;;;;;17.62;75.13;98410.41;5091237;27;45423;-74
2023/10/19 07:55:24;;;;;;;;;2.75;1.75;;;;;17.71;75.27;98422.75;5118635;27;45201;-73
2023/10/19 07:57:50;;;;;;;;;3.50;2.00;;;;;17.73;74.84;98412.88;5115792;27;68282;-74
2023/10/19 08:00:17;;;;;;;;;3.50;1.00;;;;;17.78;74.54;98423.84;5120978;27;45441;-73
2023/10/19 08:02:45;;;;;;;;;2.50;2.50;;;;;17.81;75.12;98428.88;5095309;27;45362;-74
2023/10/19 08:05:11;;;;;;;;;6.00;2.00;;;;;17.82;74.61;98427.88;5103403;27;45462;-74
2023/10/19 08:07:39;;;;;;;;;7.00;3.00;;;;;17.90;74.64;98435.13;5116925;27;45367;-73
2023/10/19 08:10:06;;;;;;;;;3.50;2.00;;;;;17.91;74.11;98433.31;5121656;27;45421;-74
2023/10/19 08:12:32;;;;;;;;;7.50;3.75;;;;;17.95;74.18;98435.50;5121142;27;45350;-74
2023/10/19 08:14:59;;;;;;;;;3.25;2.00;;;;;17.96;73.93;98436.38;5116046;27;46488;-74
2023/10/19 08:17:24;;;;;;;;;2.25;1.50;;;;;17.97;74.07;98430.94;5103673;27;45442;-74
2023/10/19 08:19:50;;;;;;;;;4.75;2.00;;;;;18.00;73.52;98427.97;5095476;27;47104;-74
2023/10/19 08:22:15;;;;;;;;;3.50;2.00;;;;;18.02;73.71;98423.41;5118919;27;45354;-73
2023/10/19 08:24:43;;;;;;;;;2.00;1.50;;;;;18.00;73.62;98421.84;5121314;27;45910;-74
2023/10/19 08:27:10;;;;;;;;;3.00;2.50;;;;;18.02;73.28;98426.03;5099983;27;46585;-74
2023/10/19 08:29:36;;;;;;;;;3.25;1.75;;;;;18.06;73.08;98431.88;5120948;27;47015;-73
2023/10/19 08:32:02;;;;;;;;;2.25;2.00;;;;;18.09;72.96;98417.50;5121783;27;45219;-73
2023/10/19 08:34:29;;;;;;;;;1.00;1.00;;;;;18.15;72.88;98415.09;5122789;27;45233;-74
2023/10/19 08:36:55;;;;;;;;;1.50;1.00;;;;;18.19;72.83;98421.75;5117371;27;45571;-74
2023/10/19 08:39:20;;;;;;;;;2.00;1.00;;;;;18.20;72.68;98401.41;5099799;27;47042;-73
2023/10/19 08:41:48;;;;;;;;;4.25;2.00;;;;;18.25;72.30;98412.41;5108631;27;45347;-74
2023/10/19 08:44:17;;;;;;;;;3.50;2.00;;;;;18.28;72.45;98404.16;5095733;27;45373;-74
2023/10/19 08:46:43;;;;;;;;;2.25;1.25;;;;;18.34;72.39;98418.63;5112596;27;45390;-74
2023/10/19 08:49:12;;;;;;;;;2.25;2.00;;;;;18.42;72.22;98409.97;5099687;27;47011;-74
2023/10/19 08:51:38;;;;;;;;;1.75;1.00;;;;;18.48;71.60;98414.63;5114881;27;45958;-75
2023/10/19 08:54:05;;;;;;;;;2.00;2.00;;;;;18.47;71.56;98405.88;5116849;27;45689;-75
2023/10/19 08:56:31;;;;;;;;;2.50;1.50;;;;;18.49;71.25;98403.06;5119098;27;45250;-74
2023/10/19 08:58:56;;;;;;;;;1.75;1.75;;;;;18.57;71.10;98414.59;5119628;27;45508;-74
2023/10/19 09:01:23;;;;;;;;;4.00;1.00;;;;;18.63;70.79;98410.50;5107902;27;72001;-74
2023/10/19 09:03:50;;;;;;;;;2.50;2.00;;;;;18.69;71.01;98411.72;5119333;27;45443;-75
2023/10/19 09:06:15;;;;;;;;;3.75;1.00;;;;;18.72;70.90;98392.88;5101354;27;45351;-74
2023/10/19 09:08:41;;;;;;;;;4.00;2.75;;;;;18.79;70.90;98404.53;5109511;27;50406;-74
2023/10/19 09:11:08;;;;;;;;;3.00;2.00;;;;;18.83;70.23;98403.28;5113406;27;45317;-74
2023/10/19 09:13:52;;;;;;;;;2.00;0.00;;;;;18.88;70.07;98408.94;5117709;27;45257;-74
2023/10/19 09:16:21;;;;;;;;;3.00;2.00;;;;;18.93;70.06;98404.03;5096832;27;45490;-74
2023/10/19 09:18:48;;;;;;;;;4.00;2.00;;;;;18.95;70.07;98396.75;5114254;27;45653;-74
2023/10/19 09:21:24;;;;;;;;;4.25;2.50;;;;;19.01;69.75;98402.44;5118316;27;45685;-74
2023/10/19 09:23:54;;;;;;;;;3.00;1.50;;;;;19.02;69.24;98391.69;5091577;27;45493;-75
2023/10/19 09:26:21;;;;;;;;;4.00;2.00;;;;;19.07;69.56;98393.84;5117111;27;45401;-74
2023/10/19 09:28:48;;;;;;;;;3.00;1.00;;;;;19.13;69.62;98396.72;5102726;27;47270;-74
2023/10/19 09:31:14;;;;;;;;;6.00;2.00;;;;;19.24;69.21;98386.88;5115635;27;45283;-74
2023/10/19 09:33:47;;;;;;;;;1.75;1.75;;;;;19.40;68.58;98375.56;5119442;27;45274;-74
2023/10/19 09:36:13;;;;;;;;;4.75;3.00;;;;;19.51;68.24;98377.94;5114190;27;45523;-74
2023/10/19 09:38:49;;;;;;;;;3.50;1.75;;;;;19.58;68.11;98378.97;5106984;27;45536;-74
2023/10/19 09:41:18;;;;;;;;;0.50;0.50;;;;;19.60;67.93;98370.84;5114246;27;45831;-74
2023/10/19 09:43:45;;;;;;;;;2.00;1.00;;;;;19.56;67.77;98359.72;5130389;27;46011;-74
2023/10/19 09:46:12;;;;;;;;;5.75;2.00;;;;;19.50;67.98;98353.22;5111854;27;45500;-74
2023/10/19 09:48:42;;;;;;;;;3.75;2.50;;;;;19.47;68.21;98347.41;5110661;27;45182;-74
2023/10/19 09:51:09;;;;;;;;;2.00;1.50;;;;;19.42;68.18;98347.88;5133441;27;45683;-74
2023/10/19 09:53:35;;;;;;;;;3.75;2.00;;;;;19.39;68.47;98350.84;5117932;27;45289;-74
2023/10/19 09:56:01;;;;;;;;;3.25;3.00;;;;;19.45;68.26;98354.69;5109296;27;45490;-74
2023/10/19 09:58:48;;;;;;;;;2.25;2.25;;;;;19.52;68.10;98353.91;5112482;27;46255;-74
2023/10/19 10:01:15;;;;;;;;;2.00;2.00;;;;;19.57;67.32;98344.66;5134716;27;46014;-74
2023/10/19 10:03:47;;;;;;;;;2.00;2.00;;;;;19.63;67.84;98351.97;5119679;27;45499;-74
2023/10/19 10:06:14;;;;;;;;;3.75;2.75;;;;;19.68;67.98;98350.50;5114676;27;45160;-74
2023/10/19 10:08:40;;;;;;;;;2.50;2.00;;;;;19.73;67.55;98364.16;5118196;27;45487;-74
2023/10/19 10:11:17;;;;;;;;;4.00;2.50;;;;;19.79;67.43;98352.06;5117548;27;45280;-74
2023/10/19 10:13:43;;;;;;;;;2.00;2.00;;;;;19.86;67.66;98354.94;5121180;27;45396;-74
2023/10/19 10:16:13;;;;;;;;;4.00;3.00;;;;;19.90;66.63;98349.16;5121334;27;45360;-74
2023/10/19 10:18:40;;;;;;;;;1.50;1.50;;;;;19.95;66.38;98350.50;5119574;27;46405;-74
2023/10/19 10:21:17;;;;;;;;;2.75;2.00;;;;;19.99;66.48;98343.84;5121016;27;46063;-74
2023/10/19 10:23:44;;;;;;;;;3.00;2.00;;;;;20.02;66.14;98340.88;5115622;27;45435;-74
2023/10/19 10:26:14;;;;;;;;;5.25;1.50;;;;;20.09;67.01;98341.91;5133860;27;46112;-75
2023/10/19 10:28:40;;;;;;;;;2.00;2.00;;;;;20.15;66.35;98340.44;5115752;27;46109;-74
2023/10/19 10:31:15;;;;;;;;;2.00;2.00;;;;;20.17;65.61;98323.34;5119821;27;45587;-75
2023/10/19 10:33:54;;;;;;;;;2.50;2.00;;;;;20.22;66.16;98339.63;5121079;27;45435;-75
2023/10/19 10:36:20;;;;;;;;;3.00;2.00;;;;;20.27;66.27;98339.97;5117828;27;45428;-74
2023/10/19 10:38:50;;;;;;;;;4.25;3.50;;;;;20.32;65.67;98328.03;5118173;27;46265;-74
2023/10/19 10:41:27;;;;;;;;;4.00;3.00;;;;;20.38;65.68;98324.72;5121052;27;45397;-74
2023/10/19 10:43:57;;;;;;;;;4.25;3.25;;;;;20.39;65.63;98321.91;5092912;27;45486;-74
2023/10/19 10:46:24;;;;;;;;;4.25;2.00;;;;;20.44;65.03;98316.09;5116018;27;45270;-74
2023/10/19 10:48:51;;;;;;;;;3.25;2.00;;;;;20.48;64.77;98315.59;5108388;27;48322;-74
2023/10/19 10:51:22;;;;;;;;;3.00;3.00;;;;;20.52;65.26;98308.13;5112517;27;45584;-74
2023/10/19 10:53:51;;;;;;;;;3.00;3.00;;;;;20.56;64.90;98296.19;5117624;27;45498;-74
2023/10/19 10:56:18;;;;;;;;;1.00;1.00;;;;;20.59;64.79;98302.97;5123082;27;45575;-74
2023/10/19 10:58:44;;;;;;;;;4.00;2.25;;;;;20.64;64.25;98298.03;5117539;27;45358;-74
2023/10/19 11:01:10;;;;;;;;;2.75;2.25;;;;;20.67;64.24;98287.91;5106512;27;45358;-74
2023/10/19 11:03:36;;;;;;;;;4.50;2.25;;;;;20.73;64.29;98281.09;5125133;27;45293;-74
2023/10/19 11:06:08;;;;;;;;;6.00;2.00;;;;;20.77;63.88;98276.25;5129715;27;45323;-74
2023/10/19 11:08:35;;;;;;;;;16.25;13.75;;;;;20.80;63.89;98267.97;5133046;27;47351;-73
2023/10/19 11:11:06;;;;;;;;;21.75;19.50;;;;;20.83;63.92;98267.63;5129420;27;45248;-75
2023/10/19 11:13:35;;;;;;;;;2.50;2.50;;;;;20.84;62.72;98270.13;5132943;27;45551;-75
2023/10/19 11:16:03;;;;;;;;;3.50;2.00;;;;;20.88;62.55;98275.94;5114236;27;45307;-75
2023/10/19 11:18:40;;;;;;;;;5.50;2.00;;;;;20.89;63.02;98271.44;5106831;27;47232;-74
2023/10/19 11:21:09;;;;;;;;;2.00;2.00;;;;;20.93;62.94;98255.00;5105331;27;45777;-75
2023/10/19 11:23:46;;;;;;;;;3.00;3.00;;;;;20.96;62.69;98256.47;5129076;27;45408;-75
2023/10/19 11:26:15;;;;;;;;;5.50;3.00;;;;;20.99;62.04;98269.44;5131763;27;45313;-74
2023/10/19 11:28:50;;;;;;;;;1.50;1.50;;;;;20.98;62.01;98260.66;5111453;27;48441;-75
2023/10/19 11:31:18;;;;;;;;;2.75;2.75;;;;;21.03;62.53;98265.44;5112107;27;45441;-75
2023/10/19 11:33:45;;;;;;;;;32.75;25.75;;;;;21.04;62.15;98257.28;5121608;27;45160;-74
2023/10/19 11:36:14;;;;;;;;;25.75;23.50;;;;;21.09;61.74;98259.47;5150759;27;45271;-75
2023/10/19 11:38:41;;;;;;;;;33.25;26.00;;;;;21.13;62.16;98262.59;5130137;27;45455;-75
2023/10/19 11:41:07;;;;;;;;;37.50;28.00;;;;;21.20;62.34;98260.94;5119554;27;45895;-75
2023/10/19 11:43:34;;;;;;;;;3.25;3.00;;;;;21.21;61.83;98242.16;5120924;27;45455;-75
2023/10/19 11:45:59;;;;;;;;;3.25;2.00;;;;;21.31;61.87;98241.94;5117651;27;45359;-75
2023/10/19 11:48:25;;;;;;;;;2.50;1.75;;;;;21.34;60.92;98235.44;5112868;27;45475;-75
2023/10/19 11:50:51;;;;;;;;;2.25;2.25;;;;;21.35;60.60;98229.94;5109537;27;45247;-75
2023/10/19 11:53:16;;;;;;;;;2.00;1.75;;;;;21.43;60.70;98237.06;5136853;27;45236;-75
2023/10/19 11:55:42;;;;;;;;;2.50;2.00;;;;;21.50;60.93;98224.78;5122058;27;45512;-74